createdAt,value
2023-03-13T16:02:37.780Z,72.70
2023-03-13T16:07:42.850Z,75.20
2023-03-13T16:12:48.407Z,74.80
2023-03-13T16:17:56.603Z,73.20
2023-03-13T16:23:03.772Z,72.80
2023-03-13T16:28:09.327Z,73.20
2023-03-13T16:33:17.413Z,72.80
2023-03-13T16:38:22.536Z,73.00
2023-03-13T16:43:28.025Z,73.50
2023-03-13T16:48:35.936Z,73.00
2023-03-13T16:53:41.290Z,73.50
2023-03-13T16:58:47.158Z,73.80
2023-03-13T17:03:55.463Z,74.40
2023-03-13T17:09:02.125Z,74.90
2023-03-13T17:14:08.075Z,75.10
2023-03-13T17:19:17.130Z,75.30
2023-03-13T17:24:22.581Z,75.50
2023-03-13T17:29:27.636Z,75.70
2023-03-13T17:34:35.477Z,75.10
2023-03-13T17:39:40.655Z,74.70
2023-03-13T17:44:45.828Z,74.40
2023-03-13T17:49:53.721Z,74.40
2023-03-13T17:54:59.048Z,74.50
2023-03-13T18:00:09.076Z,74.70
2023-03-13T18:05:17.087Z,74.90
2023-03-13T18:10:24.704Z,75.20
2023-03-13T18:15:30.114Z,75.60
2023-03-13T18:20:39.277Z,75.90
2023-03-13T18:25:44.666Z,76.20
2023-03-13T18:30:49.785Z,76.30
2023-03-13T18:35:57.636Z,76.50
2023-03-13T18:41:02.851Z,76.70
2023-03-13T18:46:08.799Z,76.80
2023-03-13T18:51:21.091Z,77.00
2023-03-13T18:56:28.685Z,77.20
2023-03-13T19:01:34.623Z,77.40
2023-03-13T19:06:43.518Z,77.50
2023-03-13T19:11:49.089Z,77.90
2023-03-13T19:16:57.627Z,78.20
2023-03-13T19:22:05.716Z,78.30
2023-03-13T19:27:13.156Z,78.30
2023-03-13T19:32:19.313Z,78.60
2023-03-13T19:37:27.147Z,78.90
2023-03-13T19:42:34.230Z,79.20
2023-03-13T19:47:39.543Z,79.50
2023-03-13T19:52:48.199Z,79.90
2023-03-13T19:57:53.363Z,80.70
2023-03-13T20:02:58.575Z,81.30
2023-03-13T20:08:06.408Z,82.10
2023-03-13T20:13:11.501Z,82.70
2023-03-13T20:18:16.554Z,83.30
2023-03-13T20:23:24.474Z,83.60
2023-03-13T20:28:29.848Z,84.00
2023-03-13T20:33:34.997Z,84.30
2023-03-13T20:38:43.564Z,85.20
2023-03-13T20:43:48.788Z,85.70
2023-03-13T20:48:56.743Z,86.00
2023-03-13T20:54:05.670Z,86.60
2023-03-13T20:59:10.846Z,87.40
2023-03-13T21:04:15.974Z,88.00
2023-03-13T21:09:23.736Z,88.20
2023-03-13T21:14:28.896Z,88.70
2023-03-13T21:19:34.526Z,89.10
2023-03-13T21:24:42.514Z,89.90
2023-03-13T21:29:47.599Z,90.20
2023-03-13T21:34:53.092Z,90.40
2023-03-13T21:40:01.213Z,90.60
2023-03-13T21:45:06.594Z,90.90
2023-03-13T21:50:15.488Z,91.40
2023-03-13T21:55:23.269Z,91.90
2023-03-13T22:00:28.761Z,92.10
2023-03-13T22:05:33.919Z,92.10
2023-03-13T22:10:41.734Z,92.00
2023-03-13T22:15:47.035Z,92.00
2023-03-13T22:20:52.252Z,91.90
2023-03-13T22:26:01.714Z,91.90
2023-03-13T22:31:08.663Z,92.10
2023-03-13T22:36:14.513Z,92.20
2023-03-13T22:41:22.452Z,92.40
2023-03-13T22:46:28.109Z,92.60
2023-03-13T22:51:33.235Z,92.80
2023-03-13T22:56:40.895Z,93.00
2023-03-13T23:01:46.056Z,93.30
2023-03-13T23:06:51.292Z,93.60
2023-03-13T23:11:59.227Z,93.80
2023-03-13T23:17:04.473Z,94.00
2023-03-13T23:22:09.745Z,94.30
2023-03-13T23:27:17.520Z,94.40
2023-03-13T23:32:22.982Z,94.30
2023-03-13T23:37:28.351Z,94.10
2023-03-13T23:42:37.179Z,94.10
2023-03-13T23:47:43.981Z,94.30
2023-03-13T23:52:49.279Z,93.90
